Time;durP1;ratioP1;P1;durP2;ratioP2;P2;SDS_P1;SDS_P2;PMS_P1;PMS_P2;Temp;Humidity;BMP_temperature;BMP_pressure;BME280_temperature;BME280_humidity;BME280_pressure;Samples;Min_cycle;Max_cycle;Signal;HPM_P1;HPM_P2
2023/01/28 00:00:05;;;;;;;13.90;6.65;;;1.80;99.90;;;;;;4867451;29;20312;-76
2023/01/28 00:02:34;;;;;;;14.85;6.75;;;1.70;99.90;;;;;;4852154;29;20050;-76
2023/01/28 00:05:00;;;;;;;9.73;5.88;;;1.80;99.90;;;;;;4852715;29;20036;-78
2023/01/28 00:07:26;;;;;;;11.75;6.13;;;1.80;99.90;;;;;;4866975;29;20034;-77
2023/01/28 00:09:52;;;;;;;10.32;5.50;;;1.80;99.90;;;;;;4852733;29;20033;-77
2023/01/28 00:12:18;;;;;;;9.20;5.03;;;1.80;99.90;;;;;;4853072;29;20086;-76
2023/01/28 00:14:45;;;;;;;10.43;5.32;;;1.80;99.90;;;;;;4852323;29;20053;-76
2023/01/28 00:17:11;;;;;;;10.20;5.68;;;1.80;99.90;;;;;;4852498;29;20096;-76
2023/01/28 00:19:37;;;;;;;10.70;4.93;;;1.70;99.90;;;;;;4852200;29;20038;-76
2023/01/28 00:22:03;;;;;;;8.57;4.90;;;1.80;99.90;;;;;;4851894;29;20269;-77
2023/01/28 00:24:29;;;;;;;10.07;5.72;;;1.90;99.90;;;;;;4852067;29;20080;-78
2023/01/28 00:26:55;;;;;;;8.55;5.15;;;1.80;99.90;;;;;;4852440;29;20032;-76
2023/01/28 00:29:21;;;;;;;8.48;4.90;;;1.80;99.90;;;;;;4867063;29;20233;-75
2023/01/28 06:02:42;;;;;;;12.75;7.28;;;1.90;99.90;;;;;;5312154;23;20057;-75
2023/01/28 06:05:10;;;;;;;13.07;7.60;;;1.90;99.90;;;;;;4895472;29;20039;-77
2023/01/28 06:07:36;;;;;;;12.48;7.53;;;2.00;99.90;;;;;;4887584;29;20044;-75
2023/01/28 06:10:03;;;;;;;11.70;7.18;;;2.00;99.90;;;;;;4898532;29;20025;-76
2023/01/28 06:12:28;;;;;;;12.95;7.25;;;2.00;99.90;;;;;;4886848;29;20045;-75
2023/01/28 06:15:21;;;;;;;13.40;7.40;;;2.00;99.90;;;;;;4901691;29;20100;-76
2023/01/28 06:18:07;;;;;;;13.90;8.20;;;1.90;99.90;;;;;;4898179;29;20317;-76
2023/01/28 06:20:33;;;;;;;14.20;7.82;;;1.90;99.90;;;;;;4906635;29;20036;-77
2023/01/28 06:22:59;;;;;;;14.55;7.88;;;1.90;99.90;;;;;;4906241;29;20033;-77
2023/01/28 06:25:25;;;;;;;13.82;7.55;;;2.00;99.90;;;;;;4906569;29;20035;-76
2023/01/28 06:27:52;;;;;;;14.00;7.88;;;1.90;99.90;;;;;;4905868;29;20033;-77
2023/01/28 06:30:18;;;;;;;13.20;7.25;;;1.90;99.90;;;;;;4892180;29;20077;-76
2023/01/28 06:32:44;;;;;;;13.10;7.80;;;1.90;99.90;;;;;;4894985;29;20032;-75
2023/01/28 06:35:10;;;;;;;14.70;8.35;;;1.90;99.90;;;;;;4895795;29;20065;-77
2023/01/28 06:37:36;;;;;;;15.52;8.73;;;1.90;99.90;;;;;;4911072;29;20036;-77
2023/01/28 06:40:03;;;;;;;14.77;8.38;;;2.00;99.90;;;;;;4909881;29;20080;-76
2023/01/28 06:42:28;;;;;;;16.77;8.65;;;2.00;99.90;;;;;;4910495;29;20059;-77
2023/01/28 06:44:54;;;;;;;12.90;7.95;;;2.00;99.90;;;;;;4909918;29;20033;-77
2023/01/28 06:47:20;;;;;;;13.30;7.60;;;2.00;99.90;;;;;;4910244;29;20040;-76
2023/01/28 06:49:45;;;;;;;12.30;7.85;;;2.00;99.90;;;;;;4910267;29;20032;-78
2023/01/28 06:52:11;;;;;;;11.48;7.43;;;1.90;99.90;;;;;;4909719;29;20040;-78
2023/01/28 06:54:37;;;;;;;11.45;7.55;;;2.00;99.90;;;;;;4909403;29;20311;-75
2023/01/28 06:57:03;;;;;;;13.60;7.78;;;1.90;99.90;;;;;;4907738;29;20036;-76
2023/01/28 06:59:28;;;;;;;13.30;7.43;;;2.00;99.90;;;;;;4891363;29;20084;-75
2023/01/28 07:01:54;;;;;;;12.95;7.40;;;1.90;99.90;;;;;;4888529;29;20052;-76
2023/01/28 07:04:20;;;;;;;13.27;7.32;;;2.00;99.90;;;;;;4891504;29;20092;-76
2023/01/28 07:06:45;;;;;;;11.65;7.40;;;2.00;99.90;;;;;;4891201;29;20293;-75
2023/01/28 07:09:11;;;;;;;14.00;7.35;;;2.00;99.90;;;;;;4890915;29;20048;-76
2023/01/28 07:11:37;;;;;;;11.82;7.15;;;2.00;99.90;;;;;;4891278;29;20043;-75
2023/01/28 07:14:03;;;;;;;12.57;7.82;;;2.00;99.90;;;;;;4890572;29;20267;-75
2023/01/28 07:16:29;;;;;;;11.55;7.05;;;2.00;99.90;;;;;;4891154;29;20033;-78
2023/01/28 07:18:55;;;;;;;12.65;7.18;;;2.00;99.90;;;;;;4890586;29;20098;-76
2023/01/28 07:21:20;;;;;;;11.48;6.97;;;2.00;99.90;;;;;;4889916;29;20048;-78
2023/01/28 07:23:46;;;;;;;12.55;7.35;;;2.00;99.90;;;;;;4891067;29;20366;-77
2023/01/28 07:26:12;;;;;;;12.05;7.68;;;1.90;99.90;;;;;;4890487;29;20043;-76
2023/01/28 07:28:37;;;;;;;11.77;7.50;;;1.90;99.90;;;;;;4891321;29;20045;-75
2023/01/28 07:31:03;;;;;;;11.60;7.05;;;2.00;99.90;;;;;;4891371;29;20100;-77
2023/01/28 07:33:29;;;;;;;12.43;7.30;;;2.10;99.90;;;;;;4890731;29;20033;-77
2023/01/28 07:35:55;;;;;;;11.52;6.72;;;2.10;99.90;;;;;;4890062;29;20355;-74
2023/01/28 07:38:20;;;;;;;10.35;6.68;;;2.10;99.90;;;;;;4889541;29;20041;-75
2023/01/28 07:40:46;;;;;;;37.67;23.52;;;2.10;99.90;;;;;;4890364;29;20203;-75
2023/01/28 07:43:12;;;;;;;13.82;8.65;;;2.20;99.90;;;;;;4890100;29;20109;-76
2023/01/28 07:45:39;;;;;;;12.15;7.28;;;2.20;99.90;;;;;;4889511;29;20025;-75
2023/01/28 07:48:07;;;;;;;14.05;8.05;;;2.20;99.90;;;;;;4904608;29;20067;-74
2023/01/28 07:50:35;;;;;;;14.00;7.35;;;2.30;99.90;;;;;;4889391;29;20029;-74
2023/01/28 07:53:04;;;;;;;13.13;7.53;;;2.30;99.90;;;;;;4889563;29;20033;-74
2023/01/28 07:55:30;;;;;;;12.20;7.15;;;2.30;99.90;;;;;;4905126;29;20092;-73
2023/01/28 07:57:59;;;;;;;12.18;8.27;;;2.40;99.90;;;;;;4889838;29;20017;-75
2023/01/28 08:00:27;;;;;;;12.68;7.65;;;2.40;99.90;;;;;;4889154;29;20040;-75
2023/01/28 08:02:58;;;;;;;12.10;7.43;;;2.40;99.90;;;;;;4888747;29;20244;-78
2023/01/28 08:05:26;;;;;;;15.27;8.48;;;2.50;99.90;;;;;;4890111;29;20059;-76
2023/01/28 08:07:52;;;;;;;14.15;8.32;;;2.50;99.90;;;;;;4889936;29;20037;-74
2023/01/28 08:10:18;;;;;;;11.98;6.97;;;2.50;99.90;;;;;;4889339;29;20037;-74
2023/01/28 08:12:57;;;;;;;13.48;8.00;;;2.50;99.90;;;;;;4890119;29;20041;-77
2023/01/28 08:15:22;;;;;;;14.65;8.38;;;2.60;99.90;;;;;;4889566;29;20037;-75
2023/01/28 08:17:50;;;;;;;13.55;7.57;;;2.60;99.90;;;;;;4888538;29;20087;-74
2023/01/28 08:20:16;;;;;;;11.95;7.40;;;2.60;99.90;;;;;;4887991;29;20299;-74
2023/01/28 08:22:41;;;;;;;15.23;8.10;;;2.50;99.90;;;;;;4888992;29;20033;-74
2023/01/28 08:25:08;;;;;;;14.48;8.20;;;2.60;99.90;;;;;;4888928;29;20089;-74
2023/01/28 08:27:34;;;;;;;14.13;8.20;;;2.70;99.90;;;;;;4889547;29;20318;-75
2023/01/28 08:29:59;;;;;;;12.85;7.75;;;2.70;99.90;;;;;;4889374;29;20031;-75
2023/01/28 08:32:25;;;;;;;12.77;7.60;;;2.70;99.90;;;;;;4889322;29;20033;-76
2023/01/28 08:34:51;;;;;;;13.80;8.10;;;2.80;99.90;;;;;;4889168;29;20037;-75
2023/01/28 08:37:16;;;;;;;13.32;7.53;;;2.80;99.90;;;;;;4889138;29;20037;-75
2023/01/28 08:39:42;;;;;;;12.65;7.30;;;2.90;99.90;;;;;;4889554;29;20045;-75
2023/01/28 08:42:08;;;;;;;15.15;7.80;;;3.00;99.90;;;;;;4887947;29;20056;-75
2023/01/28 08:44:34;;;;;;;13.35;7.28;;;3.10;99.90;;;;;;4889378;29;20045;-77
2023/01/28 08:47:00;;;;;;;12.50;7.53;;;3.10;99.90;;;;;;4889085;29;20039;-78
2023/01/28 08:49:26;;;;;;;15.63;8.82;;;3.10;99.90;;;;;;4888162;29;20044;-74
2023/01/28 08:51:52;;;;;;;14.02;8.00;;;3.30;99.90;;;;;;4903699;29;20101;-75
2023/01/28 08:54:17;;;;;;;13.43;8.30;;;3.30;99.90;;;;;;4887642;29;20044;-75
2023/01/28 08:56:43;;;;;;;15.18;8.55;;;3.40;99.90;;;;;;4890266;29;20261;-73
2023/01/28 08:59:12;;;;;;;15.38;9.10;;;3.40;99.90;;;;;;4890396;29;20029;-74
2023/01/28 09:01:38;;;;;;;17.60;9.20;;;3.50;99.90;;;;;;4887856;29;20366;-74
2023/01/28 09:04:03;;;;;;;14.65;8.63;;;3.60;99.90;;;;;;4888949;29;20049;-74
2023/01/28 09:06:29;;;;;;;16.63;8.45;;;3.70;99.90;;;;;;4903174;29;20045;-74
2023/01/28 09:08:59;;;;;;;14.45;8.43;;;3.80;99.90;;;;;;4889054;29;20064;-74
2023/01/28 09:11:25;;;;;;;15.27;8.50;;;3.70;99.90;;;;;;4888830;29;20040;-73
2023/01/28 09:13:51;;;;;;;13.85;8.27;;;3.80;99.90;;;;;;4888767;29;20043;-73
2023/01/28 09:16:17;;;;;;;14.75;8.93;;;3.90;99.90;;;;;;4887194;29;20100;-74
2023/01/28 09:18:43;;;;;;;15.73;8.23;;;4.00;99.90;;;;;;4889053;29;20041;-74
2023/01/28 09:21:08;;;;;;;15.55;8.73;;;4.10;99.90;;;;;;4888472;29;20053;-73
2023/01/28 09:23:37;;;;;;;14.15;9.20;;;4.20;99.90;;;;;;4888167;29;20333;-74
2023/01/28 09:26:05;;;;;;;14.32;8.40;;;4.20;99.90;;;;;;4888200;29;20037;-74
2023/01/28 09:28:32;;;;;;;16.92;9.30;;;4.20;99.90;;;;;;4887532;29;20032;-74
2023/01/28 09:31:06;;;;;;;13.45;8.27;;;4.20;99.90;;;;;;4888446;29;20060;-75
2023/01/28 09:33:33;;;;;;;16.25;8.68;;;4.20;99.90;;;;;;4888718;29;20047;-74
2023/01/28 09:36:00;;;;;;;15.43;8.88;;;4.20;99.90;;;;;;4888233;29;20053;-75
2023/01/28 09:38:27;;;;;;;14.93;8.50;;;4.20;99.90;;;;;;4888360;29;20028;-74
2023/01/28 09:40:55;;;;;;;15.77;8.65;;;4.20;99.90;;;;;;4888241;29;20045;-74
2023/01/28 09:43:53;;;;;;;15.25;8.52;;;4.30;99.90;;;;;;4886607;29;20091;-74
2023/01/28 09:46:19;;;;;;;14.50;8.55;;;4.50;99.90;;;;;;4886979;29;20048;-76
2023/01/28 09:48:50;;;;;;;16.85;9.30;;;4.50;99.90;;;;;;4879832;29;20029;-76
2023/01/28 09:51:41;;;;;;;18.70;9.10;;;4.60;99.90;;;;;;4887461;29;20104;-76
2023/01/28 09:54:19;;;;;;;16.52;9.05;;;4.50;99.90;;;;;;4887296;29;20132;-76
2023/01/28 09:56:49;;;;;;;14.85;8.40;;;4.70;99.90;;;;;;4887941;29;20036;-76
2023/01/28 09:59:20;;;;;;;15.40;9.15;;;4.80;99.90;;;;;;4868924;29;20033;-74
2023/01/28 10:01:58;;;;;;;14.95;8.70;;;4.70;99.90;;;;;;4869300;29;20050;-74
2023/01/28 10:04:57;;;;;;;15.95;9.23;;;4.50;99.90;;;;;;4879416;29;20020;-75
2023/01/28 10:07:33;;;;;;;15.85;9.18;;;4.60;99.90;;;;;;4870457;29;20045;-75
2023/01/28 10:10:16;;;;;;;15.10;9.30;;;4.50;99.90;;;;;;4869115;29;20030;-75
2023/01/28 10:13:04;;;;;;;15.10;8.85;;;4.30;99.90;;;;;;4869122;29;20326;-75
2023/01/28 10:15:42;;;;;;;14.52;9.18;;;4.30;99.90;;;;;;4869111;29;20103;-76
2023/01/28 10:18:11;;;;;;;19.05;9.48;;;4.20;99.90;;;;;;4896898;29;20028;-75
2023/01/28 10:20:54;;;;;;;17.15;9.50;;;4.00;99.90;;;;;;4875190;29;20037;-75
2023/01/28 10:23:29;;;;;;;16.70;9.13;;;3.90;99.90;;;;;;4886182;29;20036;-75
2023/01/28 10:25:58;;;;;;;16.88;9.43;;;4.00;99.90;;;;;;4887226;29;20093;-73
2023/01/28 10:28:28;;;;;;;19.48;10.00;;;3.90;99.90;;;;;;4886557;29;20367;-76
2023/01/28 10:30:54;;;;;;;15.00;8.88;;;4.00;99.90;;;;;;4886918;29;20134;-75
2023/01/28 10:33:35;;;;;;;16.58;9.00;;;4.00;99.90;;;;;;4886689;29;20172;-76
2023/01/28 10:36:03;;;;;;;15.45;9.10;;;4.10;99.90;;;;;;4886685;29;20041;-74
2023/01/28 10:38:29;;;;;;;16.08;8.93;;;4.10;99.90;;;;;;4887945;29;20092;-75
2023/01/28 10:41:05;;;;;;;16.33;8.82;;;4.10;99.90;;;;;;4887843;29;20045;-76
2023/01/28 10:43:37;;;;;;;16.00;9.52;;;4.00;99.90;;;;;;4888022;29;20333;-76
2023/01/28 10:46:17;;;;;;;15.80;9.00;;;4.10;99.90;;;;;;4887754;29;20041;-76
2023/01/28 10:49:06;;;;;;;16.02;9.40;;;4.00;99.90;;;;;;4887471;29;20044;-73
2023/01/28 10:51:37;;;;;;;18.50;9.90;;;4.10;99.90;;;;;;4887389;29;20037;-74
2023/01/28 10:54:16;;;;;;;16.88;9.27;;;4.10;99.90;;;;;;4887906;29;20029;-75
2023/01/28 10:56:43;;;;;;;17.33;10.20;;;4.10;99.90;;;;;;4886199;29;20088;-72
2023/01/28 10:59:28;;;;;;;17.30;9.60;;;4.00;99.90;;;;;;4887183;29;20104;-73
2023/01/28 11:01:58;;;;;;;15.38;9.10;;;4.10;99.90;;;;;;4887163;29;20060;-75
2023/01/28 11:04:26;;;;;;;18.02;9.25;;;4.10;99.90;;;;;;4886278;29;20264;-74
2023/01/28 11:07:20;;;;;;;17.88;9.88;;;4.20;99.90;;;;;;4889294;29;20025;-73
2023/01/28 11:09:50;;;;;;;18.50;10.30;;;4.30;99.90;;;;;;4890933;29;20060;-73
2023/01/28 11:12:20;;;;;;;16.48;9.63;;;4.40;99.90;;;;;;4889317;29;20077;-75
2023/01/28 11:14:55;;;;;;;15.27;9.23;;;4.40;99.90;;;;;;4890666;29;20067;-75
2023/01/28 11:17:24;;;;;;;17.70;10.23;;;4.40;99.90;;;;;;4888934;29;20028;-76
2023/01/28 11:19:52;;;;;;;17.63;9.60;;;4.40;99.90;;;;;;4890373;29;20048;-72
2023/01/28 11:22:38;;;;;;;;;;;4.50;99.90;;;;;;4889964;29;20041;-73
2023/01/28 11:25:33;;;;;;;17.48;9.52;;;4.70;99.90;;;;;;4890486;29;20090;-72
2023/01/28 11:28:02;;;;;;;16.92;9.63;;;4.80;99.90;;;;;;4890423;29;20037;-77
2023/01/28 11:30:35;;;;;;;15.30;9.25;;;4.90;99.90;;;;;;4888647;29;20037;-75
2023/01/28 11:33:10;;;;;;;15.65;9.10;;;4.80;99.90;;;;;;4890115;29;20025;-75
2023/01/28 11:35:35;;;;;;;16.98;9.82;;;4.70;99.90;;;;;;4888044;29;20041;-75
2023/01/28 11:38:01;;;;;;;18.30;9.88;;;4.60;99.90;;;;;;4903476;29;20032;-77
2023/01/28 11:40:28;;;;;;;16.25;9.30;;;4.50;99.90;;;;;;4904162;29;20222;-79
2023/01/28 11:42:56;;;;;;;14.63;8.63;;;4.40;99.90;;;;;;4904712;29;20082;-77
2023/01/28 11:46:07;;;;;;;16.60;9.18;;;4.30;99.90;;;;;;4889672;29;20033;-75
2023/01/28 11:48:58;;;;;;;18.20;9.48;;;4.30;99.90;;;;;;4895783;29;20100;-77
2023/01/28 11:51:41;;;;;;;18.05;9.73;;;4.20;99.90;;;;;;4904243;29;20037;-75
2023/01/28 11:54:16;;;;;;;17.85;9.43;;;4.20;99.90;;;;;;4904478;29;20104;-75
2023/01/28 11:57:08;;;;;;;19.60;9.80;;;4.20;99.90;;;;;;4889948;29;20097;-75
2023/01/28 11:59:52;;;;;;;18.52;9.98;;;4.20;99.90;;;;;;4878052;29;20235;-75
2023/01/28 12:02:51;;;;;;;17.63;9.77;;;4.10;99.90;;;;;;4870645;29;20049;-76
2023/01/28 12:05:53;;;;;;;18.30;9.90;;;4.10;99.90;;;;;;4870800;29;20078;-75
2023/01/28 12:08:32;;;;;;;18.83;10.13;;;4.00;99.90;;;;;;4872564;29;20207;-76
2023/01/28 12:12:13;;;;;;;16.75;9.65;;;3.90;99.90;;;;;;4885596;29;20116;-75
2023/01/28 12:14:38;;;;;;;17.58;9.68;;;3.80;99.90;;;;;;4890598;29;20397;-79
2023/01/28 12:17:44;;;;;;;17.75;9.65;;;3.80;99.90;;;;;;4889502;29;20311;-77
2023/01/28 12:20:30;;;;;;;18.15;9.55;;;3.70;99.90;;;;;;4889323;29;20035;-76
2023/01/28 12:23:23;;;;;;;18.52;10.32;;;3.70;99.90;;;;;;4889374;29;20227;-78
2023/01/28 12:26:04;;;;;;;16.63;9.65;;;3.70;99.90;;;;;;4889380;29;20303;-77
2023/01/28 12:28:47;;;;;;;17.98;10.23;;;3.70;99.90;;;;;;4889067;29;20041;-78
2023/01/28 12:31:45;;;;;;;21.52;10.48;;;3.80;99.90;;;;;;4888888;29;20048;-78
2023/01/28 12:34:48;;;;;;;20.05;11.05;;;3.70;99.90;;;;;;4889173;29;20036;-77
2023/01/28 12:37:51;;;;;;;18.52;10.20;;;3.70;99.90;;;;;;4888533;29;20044;-78
2023/01/28 12:40:30;;;;;;;19.55;10.10;;;3.60;99.90;;;;;;4882462;29;20045;-77
2023/01/28 12:43:08;;;;;;;17.13;9.38;;;3.60;99.90;;;;;;4870574;29;20033;-78
2023/01/28 12:45:45;;;;;;;20.02;11.00;;;3.60;99.90;;;;;;4869855;29;20045;-78
2023/01/28 12:48:28;;;;;;;18.40;9.43;;;3.70;99.90;;;;;;4886627;29;20040;-77
2023/01/28 12:51:03;;;;;;;16.77;8.63;;;3.90;99.90;;;;;;4884745;29;20045;-76
2023/01/28 12:53:44;;;;;;;14.77;8.43;;;3.90;99.90;;;;;;4869886;29;20040;-77
2023/01/28 12:56:24;;;;;;;16.35;8.45;;;4.00;99.90;;;;;;4888114;29;20130;-78
2023/01/28 12:59:26;;;;;;;16.15;8.63;;;3.90;99.90;;;;;;4888666;29;20056;-77
2023/01/28 13:02:12;;;;;;;15.00;8.20;;;3.90;99.90;;;;;;4878747;29;20255;-77
2023/01/28 13:05:08;;;;;;;13.13;7.30;;;3.80;99.90;;;;;;4888298;29;20036;-78
2023/01/28 13:07:44;;;;;;;15.35;8.02;;;3.80;99.90;;;;;;4888467;29;20040;-77
2023/01/28 13:10:37;;;;;;;14.00;7.13;;;3.80;99.90;;;;;;4888890;29;20024;-76
2023/01/28 13:13:04;;;;;;;15.85;7.90;;;3.80;99.90;;;;;;4888776;29;20085;-75
2023/01/28 13:15:31;;;;;;;12.73;7.45;;;3.80;99.90;;;;;;4902943;29;20029;-77
2023/01/28 13:18:00;;;;;;;13.15;6.45;;;3.80;99.90;;;;;;4887487;29;20048;-75
2023/01/28 13:20:48;;;;;;;10.77;5.90;;;3.80;99.90;;;;;;4888194;29;20048;-76
2023/01/28 13:23:40;;;;;;;8.68;4.75;;;3.80;99.90;;;;;;4887051;29;20048;-76
2023/01/28 13:26:40;;;;;;;8.60;5.05;;;3.70;99.90;;;;;;4886549;29;20036;-75
2023/01/28 13:29:14;;;;;;;9.40;4.53;;;3.80;99.90;;;;;;4887133;29;20191;-75
2023/01/28 13:31:42;;;;;;;10.60;5.10;;;3.60;99.90;;;;;;4888072;29;20021;-75
2023/01/28 13:34:31;;;;;;;9.80;5.03;;;3.60;99.90;;;;;;4902272;29;20041;-75
2023/01/28 13:37:21;;;;;;;9.73;5.30;;;3.70;99.90;;;;;;4886992;29;20025;-76
2023/01/28 13:40:08;;;;;;;10.77;5.35;;;3.80;99.90;;;;;;4887747;29;20263;-75
2023/01/28 13:42:34;;;;;;;11.35;5.35;;;3.80;99.90;;;;;;4902368;29;20074;-77
2023/01/28 13:45:21;;;;;;;10.93;5.90;;;3.70;99.90;;;;;;4888092;29;20073;-77
2023/01/28 13:47:52;;;;;;;9.68;5.72;;;3.60;99.90;;;;;;4902775;29;20032;-76
2023/01/28 13:50:24;;;;;;;11.73;6.45;;;3.50;99.90;;;;;;4886571;29;20044;-79
2023/01/28 13:52:58;;;;;;;11.50;6.03;;;3.60;99.90;;;;;;4887401;29;20040;-79
2023/01/28 13:55:28;;;;;;;12.02;6.63;;;3.50;99.90;;;;;;4887067;29;20111;-76
2023/01/28 13:58:20;;;;;;;11.35;6.45;;;3.40;99.90;;;;;;4885654;29;20032;-83
2023/01/28 14:01:14;;;;;;;10.10;5.93;;;3.30;99.90;;;;;;4888684;29;20323;-76
2023/01/28 14:04:02;;;;;;;13.02;6.32;;;3.30;99.90;;;;;;4886834;29;20104;-76
2023/01/28 14:06:52;;;;;;;11.88;6.60;;;3.30;99.90;;;;;;4887280;29;20123;-76
2023/01/28 14:09:20;;;;;;;12.98;6.80;;;3.40;99.90;;;;;;4887851;29;20076;-78
2023/01/28 14:12:02;;;;;;;11.77;6.75;;;3.40;99.90;;;;;;4888094;29;20051;-78
2023/01/28 14:15:03;;;;;;;15.23;7.20;;;3.50;99.90;;;;;;4887502;29;20096;-79
2023/01/28 14:17:45;;;;;;;12.73;6.47;;;3.60;99.90;;;;;;4894247;29;20049;-77
2023/01/28 14:20:24;;;;;;;13.45;6.95;;;3.60;99.90;;;;;;4888109;29;20037;-78
2023/01/28 14:22:53;;;;;;;11.65;6.82;;;3.60;99.90;;;;;;4885349;29;20029;-77
2023/01/28 14:25:42;;;;;;;12.48;6.60;;;3.70;99.90;;;;;;4887467;29;20040;-78
2023/01/28 14:28:14;;;;;;;11.18;6.50;;;3.70;99.90;;;;;;4888359;29;20047;-76
2023/01/28 14:30:39;;;;;;;11.35;6.68;;;3.60;99.90;;;;;;4887149;29;20041;-77
2023/01/28 14:33:10;;;;;;;12.23;7.25;;;3.70;99.90;;;;;;4888102;29;20048;-78
2023/01/28 14:35:43;;;;;;;12.30;7.25;;;3.70;99.90;;;;;;4902273;29;20041;-78
2023/01/28 14:38:16;;;;;;;12.68;7.03;;;3.70;99.90;;;;;;4887722;29;20021;-77
2023/01/28 14:40:43;;;;;;;13.57;7.45;;;3.80;99.90;;;;;;4889806;29;20029;-77
2023/01/28 14:43:17;;;;;;;13.70;7.28;;;3.80;99.90;;;;;;4888672;29;21795;-77
2023/01/28 14:45:49;;;;;;;12.23;7.30;;;3.80;99.90;;;;;;4891367;29;20052;-78
2023/01/28 14:48:37;;;;;;;12.18;6.45;;;3.80;99.90;;;;;;4891028;29;20323;-76
2023/01/28 14:51:14;;;;;;;11.83;6.43;;;3.70;99.90;;;;;;4891022;29;20041;-78
2023/01/28 14:54:25;;;;;;;9.95;6.40;;;3.60;99.90;;;;;;4889963;29;20041;-78
2023/01/28 14:57:03;;;;;;;11.05;6.18;;;3.50;99.90;;;;;;4890639;29;20045;-78
2023/01/28 14:59:45;;;;;;;11.60;5.63;;;3.40;99.90;;;;;;4890507;29;20326;-78
2023/01/28 15:02:41;;;;;;;8.75;5.70;;;3.40;99.90;;;;;;4890582;29;20319;-78
2023/01/28 15:05:10;;;;;;;9.32;5.68;;;3.30;99.90;;;;;;4896843;29;20109;-78
2023/01/28 15:07:35;;;;;;;10.05;5.70;;;3.30;99.90;;;;;;4890191;29;20028;-78
2023/01/28 15:10:05;;;;;;;9.00;5.38;;;3.30;99.90;;;;;;4890813;29;20267;-78
2023/01/28 15:12:36;;;;;;;9.00;5.25;;;3.40;99.90;;;;;;4890409;29;20238;-77
2023/01/28 15:15:18;;;;;;;9.07;5.63;;;3.40;99.90;;;;;;4890201;29;20312;-77
2023/01/28 15:17:46;;;;;;;9.13;5.20;;;3.40;99.90;;;;;;4886819;29;20093;-77
2023/01/28 15:20:22;;;;;;;8.52;5.40;;;3.40;99.90;;;;;;4903843;29;20252;-77
2023/01/28 15:22:49;;;;;;;8.95;5.60;;;3.40;99.90;;;;;;4875121;29;20065;-76
2023/01/28 15:25:21;;;;;;;9.48;5.82;;;3.40;99.90;;;;;;4889649;29;20111;-76
2023/01/28 15:27:50;;;;;;;10.07;5.43;;;3.40;99.90;;;;;;4890473;29;20228;-76
2023/01/28 15:30:24;;;;;;;8.45;5.40;;;3.30;99.90;;;;;;4889690;29;20327;-76
2023/01/28 15:33:15;;;;;;;9.50;5.47;;;3.30;99.90;;;;;;4903475;29;20037;-76
2023/01/28 15:35:53;;;;;;;10.25;5.05;;;3.20;99.90;;;;;;4888727;29;20032;-75
2023/01/28 15:38:20;;;;;;;8.90;4.95;;;3.10;99.90;;;;;;4873327;29;20337;-77
2023/01/28 15:40:58;;;;;;;7.68;4.88;;;3.10;99.90;;;;;;4889724;29;20128;-77
2023/01/28 15:43:29;;;;;;;8.98;4.82;;;3.00;99.90;;;;;;4889069;29;20029;-77
2023/01/28 15:45:57;;;;;;;9.40;5.28;;;3.00;99.90;;;;;;4889142;29;20330;-77
2023/01/28 15:48:27;;;;;;;8.93;5.10;;;3.00;99.90;;;;;;4888976;29;20333;-76
2023/01/28 15:51:07;;;;;;;10.38;5.60;;;3.00;99.90;;;;;;4887367;29;20065;-77
2023/01/28 15:53:42;;;;;;;9.25;5.22;;;3.10;99.90;;;;;;4888045;29;20024;-77
2023/01/28 15:56:14;;;;;;;8.25;4.60;;;3.00;99.90;;;;;;4880981;29;20037;-77
2023/01/28 15:58:41;;;;;;;8.63;5.10;;;3.10;99.90;;;;;;4890104;29;20039;-78
2023/01/28 16:01:09;;;;;;;15.15;7.75;;;3.00;99.90;;;;;;4890407;29;20025;-77
2023/01/28 16:03:40;;;;;;;9.15;5.20;;;3.00;99.90;;;;;;4904444;29;20267;-75
2023/01/28 16:06:21;;;;;;;9.40;5.22;;;3.00;99.90;;;;;;4904772;29;20159;-76
2023/01/28 16:08:51;;;;;;;7.03;4.28;;;3.00;99.90;;;;;;4889826;29;20068;-77
2023/01/28 16:11:26;;;;;;;7.97;4.70;;;3.00;99.90;;;;;;4890077;29;20048;-76
2023/01/28 16:13:52;;;;;;;8.57;5.00;;;2.90;99.90;;;;;;4889931;29;20033;-78
2023/01/28 16:16:33;;;;;;;8.20;4.38;;;2.90;99.90;;;;;;4890172;29;20333;-75
2023/01/28 16:19:02;;;;;;;11.43;7.40;;;2.90;99.90;;;;;;4889900;29;20035;-76
2023/01/28 16:21:36;;;;;;;7.95;4.85;;;2.90;99.90;;;;;;4889342;29;20036;-76
2023/01/28 16:24:05;;;;;;;7.18;5.00;;;2.90;99.90;;;;;;4888834;29;20112;-75
2023/01/28 16:26:33;;;;;;;9.82;5.35;;;2.90;99.90;;;;;;4889377;29;20047;-75
2023/01/28 16:29:17;;;;;;;8.77;5.57;;;2.90;99.90;;;;;;4889772;29;20112;-75
2023/01/28 16:31:42;;;;;;;9.75;5.25;;;2.90;99.90;;;;;;4888846;29;20040;-77
2023/01/28 16:34:09;;;;;;;7.68;4.38;;;2.90;99.90;;;;;;4889427;29;20211;-77
2023/01/28 16:36:36;;;;;;;9.70;5.22;;;2.90;99.90;;;;;;4887247;29;20326;-76
2023/01/28 16:39:01;;;;;;;8.95;4.95;;;2.90;99.90;;;;;;4888411;29;20073;-75
2023/01/28 16:41:31;;;;;;;9.25;4.90;;;2.90;99.90;;;;;;4889059;29;20044;-78
2023/01/28 16:44:04;;;;;;;9.25;4.80;;;2.80;99.90;;;;;;4889599;29;20043;-79
2023/01/28 16:46:32;;;;;;;8.80;4.43;;;2.80;99.90;;;;;;4888704;29;20031;-78
2023/01/28 16:48:58;;;;;;;8.27;4.82;;;2.80;99.90;;;;;;4889527;29;20032;-77
2023/01/28 16:51:25;;;;;;;10.00;5.65;;;2.80;99.90;;;;;;4889307;29;20067;-75
2023/01/28 16:53:51;;;;;;;8.68;5.30;;;2.80;99.90;;;;;;4889009;29;20036;-73
2023/01/28 16:56:20;;;;;;;10.07;5.90;;;2.80;99.90;;;;;;4889188;29;20041;-75
2023/01/28 16:58:46;;;;;;;11.18;5.95;;;2.70;99.90;;;;;;4888495;29;20043;-77
2023/01/28 17:01:12;;;;;;;9.88;5.53;;;2.80;99.90;;;;;;4889040;29;20036;-75
2023/01/28 17:03:39;;;;;;;9.23;5.28;;;2.90;99.90;;;;;;4902234;29;20105;-74
2023/01/28 17:06:05;;;;;;;9.65;5.97;;;2.80;99.90;;;;;;4888806;29;20276;-77
2023/01/28 17:08:32;;;;;;;9.05;5.05;;;2.80;99.90;;;;;;4888627;29;20063;-76
2023/01/28 17:10:58;;;;;;;32.72;11.07;;;2.80;99.90;;;;;;4888570;29;20036;-72
2023/01/28 17:13:27;;;;;;;8.60;5.38;;;2.80;99.90;;;;;;4888886;29;20108;-74
2023/01/28 17:15:53;;;;;;;9.13;5.25;;;2.80;99.90;;;;;;4888958;29;20025;-74
2023/01/28 17:18:19;;;;;;;8.82;5.03;;;2.80;99.90;;;;;;4888872;29;20096;-73
2023/01/28 17:20:44;;;;;;;11.27;6.30;;;2.80;99.90;;;;;;4888328;29;20322;-76
2023/01/28 17:23:18;;;;;;;8.40;5.18;;;2.80;99.90;;;;;;4903336;29;20033;-77
2023/01/28 17:25:43;;;;;;;12.40;5.85;;;2.80;99.90;;;;;;4888790;29;20033;-75
2023/01/28 17:28:10;;;;;;;9.70;4.90;;;2.80;99.90;;;;;;4887636;29;20203;-77
2023/01/28 17:30:40;;;;;;;8.27;4.72;;;2.80;99.90;;;;;;4888739;29;20040;-76
2023/01/28 17:33:06;;;;;;;10.32;5.72;;;2.80;99.90;;;;;;4888814;29;20041;-77
2023/01/28 17:35:34;;;;;;;10.32;5.30;;;2.80;99.90;;;;;;4888079;29;20032;-78
2023/01/28 17:38:01;;;;;;;9.93;5.43;;;2.70;99.90;;;;;;4888343;29;20104;-77
2023/01/28 17:40:27;;;;;;;8.95;5.40;;;2.70;99.90;;;;;;4887602;29;20090;-78
2023/01/28 17:42:54;;;;;;;9.90;5.35;;;2.80;99.90;;;;;;4888342;29;20033;-77
2023/01/28 17:45:20;;;;;;;7.28;5.15;;;2.70;99.90;;;;;;4888960;29;20033;-79
2023/01/28 17:47:45;;;;;;;9.68;5.70;;;2.70;99.90;;;;;;4888152;29;20059;-76
2023/01/28 17:50:11;;;;;;;8.90;6.07;;;2.80;99.90;;;;;;4902937;29;20096;-75
2023/01/28 17:52:37;;;;;;;9.85;6.18;;;2.70;99.90;;;;;;4884773;29;20025;-77
2023/01/28 17:55:03;;;;;;;10.73;5.85;;;2.70;99.90;;;;;;4884433;29;20028;-78
2023/01/28 17:57:29;;;;;;;9.75;5.25;;;2.70;99.90;;;;;;4886609;29;20065;-76
2023/01/28 17:59:55;;;;;;;8.75;5.43;;;2.70;99.90;;;;;;4888508;29;20033;-77
2023/01/28 18:02:21;;;;;;;8.60;5.30;;;2.60;99.90;;;;;;4887663;29;20231;-78
2023/01/28 18:04:47;;;;;;;10.50;6.22;;;2.60;99.90;;;;;;4887803;29;20049;-77
2023/01/28 18:07:12;;;;;;;8.32;6.05;;;2.60;99.90;;;;;;4888242;29;20063;-78
2023/01/28 18:09:40;;;;;;;9.85;6.00;;;2.60;99.90;;;;;;4887377;29;20047;-77
2023/01/28 18:12:08;;;;;;;8.90;6.00;;;2.60;99.90;;;;;;4888271;29;20052;-77
2023/01/28 18:14:34;;;;;;;6.82;4.63;;;2.60;99.90;;;;;;4890206;29;20043;-78
2023/01/28 18:17:00;;;;;;;10.60;5.97;;;2.50;99.90;;;;;;4909353;29;20028;-78
2023/01/28 18:19:27;;;;;;;11.25;6.55;;;2.50;99.90;;;;;;4894406;29;20411;-77
2023/01/28 18:21:57;;;;;;;10.60;6.47;;;2.40;99.90;;;;;;4893865;29;20025;-77
2023/01/28 18:24:26;;;;;;;10.20;6.63;;;2.40;99.90;;;;;;4894035;29;20215;-78
2023/01/28 18:26:57;;;;;;;12.63;7.43;;;2.30;99.90;;;;;;4893668;29;20048;-76
2023/01/28 18:29:24;;;;;;;16.70;10.20;;;2.30;99.90;;;;;;4894362;29;20037;-77
2023/01/28 18:31:54;;;;;;;11.93;6.35;;;2.30;99.90;;;;;;4908190;29;20093;-79
2023/01/28 18:34:24;;;;;;;11.05;6.80;;;2.30;99.90;;;;;;4893905;29;20219;-80
2023/01/28 18:36:49;;;;;;;16.40;7.97;;;2.30;99.90;;;;;;4904918;29;20026;-76
2023/01/28 18:39:17;;;;;;;14.00;7.53;;;2.30;99.90;;;;;;4875818;29;20026;-76
2023/01/28 18:41:42;;;;;;;14.70;7.63;;;2.30;99.90;;;;;;4874959;29;20069;-76
2023/01/28 18:44:10;;;;;;;15.43;8.10;;;2.20;99.90;;;;;;4875705;29;20120;-76
2023/01/28 18:46:36;;;;;;;13.48;7.25;;;2.20;99.90;;;;;;4875082;29;20104;-76